sensor_id;sensor_type;location;lat;lon;timestamp;P1;durP1;ratioP1;P2;durP2;ratioP2
42226;SDS011;27892;52.378;13.122;2023-02-15T00:01:40;8.83;;;5.63;;
42226;SDS011;27892;52.378;13.122;2023-02-15T00:04:07;6.70;;;4.70;;
42226;SDS011;27892;52.378;13.122;2023-02-15T00:06:34;10.80;;;5.67;;
42226;SDS011;27892;52.378;13.122;2023-02-15T00:09:00;11.53;;;6.90;;
42226;SDS011;27892;52.378;13.122;2023-02-15T00:11:27;10.77;;;6.70;;
42226;SDS011;27892;52.378;13.122;2023-02-15T00:14:12;12.27;;;7.27;;
42226;SDS011;27892;52.378;13.122;2023-02-15T00:16:41;11.53;;;6.83;;
42226;SDS011;27892;52.378;13.122;2023-02-15T00:19:08;12.03;;;7.37;;
42226;SDS011;27892;52.378;13.122;2023-02-15T00:21:35;13.43;;;8.17;;
42226;SDS011;27892;52.378;13.122;2023-02-15T00:24:03;15.30;;;8.83;;
42226;SDS011;27892;52.378;13.122;2023-02-15T00:26:30;15.87;;;8.90;;
42226;SDS011;27892;52.378;13.122;2023-02-15T00:28:56;15.63;;;8.87;;
42226;SDS011;27892;52.378;13.122;2023-02-15T00:31:25;13.30;;;8.27;;
42226;SDS011;27892;52.378;13.122;2023-02-15T00:33:56;11.93;;;7.10;;
42226;SDS011;27892;52.378;13.122;2023-02-15T00:36:30;13.07;;;7.37;;
42226;SDS011;27892;52.378;13.122;2023-02-15T00:38:56;11.37;;;6.93;;
42226;SDS011;27892;52.378;13.122;2023-02-15T00:41:21;15.33;;;8.67;;
42226;SDS011;27892;52.378;13.122;2023-02-15T00:43:47;14.93;;;9.03;;
42226;SDS011;27892;52.378;13.122;2023-02-15T00:46:13;16.07;;;9.67;;
42226;SDS011;27892;52.378;13.122;2023-02-15T00:48:38;15.03;;;8.50;;
42226;SDS011;27892;52.378;13.122;2023-02-15T00:51:04;18.73;;;9.67;;
42226;SDS011;27892;52.378;13.122;2023-02-15T00:53:30;15.17;;;9.50;;
42226;SDS011;27892;52.378;13.122;2023-02-15T00:55:56;17.67;;;9.83;;
42226;SDS011;27892;52.378;13.122;2023-02-15T00:58:22;18.40;;;10.57;;
42226;SDS011;27892;52.378;13.122;2023-02-15T01:00:48;15.07;;;9.00;;
42226;SDS011;27892;52.378;13.122;2023-02-15T01:03:14;12.17;;;7.53;;
42226;SDS011;27892;52.378;13.122;2023-02-15T01:05:41;12.53;;;7.47;;
42226;SDS011;27892;52.378;13.122;2023-02-15T01:08:07;16.37;;;8.90;;
42226;SDS011;27892;52.378;13.122;2023-02-15T01:10:34;17.17;;;9.30;;
42226;SDS011;27892;52.378;13.122;2023-02-15T01:13:00;13.87;;;7.53;;
42226;SDS011;27892;52.378;13.122;2023-02-15T01:15:26;11.97;;;6.97;;
42226;SDS011;27892;52.378;13.122;2023-02-15T01:17:52;17.13;;;9.10;;
42226;SDS011;27892;52.378;13.122;2023-02-15T01:20:18;19.00;;;9.77;;
42226;SDS011;27892;52.378;13.122;2023-02-15T01:22:52;19.70;;;10.17;;
42226;SDS011;27892;52.378;13.122;2023-02-15T01:25:19;20.30;;;11.43;;
42226;SDS011;27892;52.378;13.122;2023-02-15T01:27:45;21.13;;;11.00;;
42226;SDS011;27892;52.378;13.122;2023-02-15T01:30:11;16.00;;;9.27;;
42226;SDS011;27892;52.378;13.122;2023-02-15T01:32:38;15.83;;;8.60;;
42226;SDS011;27892;52.378;13.122;2023-02-15T01:35:04;11.93;;;7.50;;
42226;SDS011;27892;52.378;13.122;2023-02-15T01:37:30;13.27;;;8.07;;
42226;SDS011;27892;52.378;13.122;2023-02-15T01:39:57;12.17;;;7.07;;
42226;SDS011;27892;52.378;13.122;2023-02-15T01:42:25;16.80;;;9.23;;
42226;SDS011;27892;52.378;13.122;2023-02-15T01:44:54;16.67;;;9.83;;
42226;SDS011;27892;52.378;13.122;2023-02-15T01:50:00;18.50;;;9.47;;
42226;SDS011;27892;52.378;13.122;2023-02-15T01:52:34;17.63;;;10.03;;
42226;SDS011;27892;52.378;13.122;2023-02-15T01:55:05;18.13;;;10.90;;
42226;SDS011;27892;52.378;13.122;2023-02-15T01:57:32;19.50;;;10.90;;
42226;SDS011;27892;52.378;13.122;2023-02-15T01:59:59;21.93;;;11.43;;
42226;SDS011;27892;52.378;13.122;2023-02-15T02:02:27;21.43;;;11.10;;
42226;SDS011;27892;52.378;13.122;2023-02-15T02:04:58;22.93;;;12.37;;
42226;SDS011;27892;52.378;13.122;2023-02-15T02:07:28;22.97;;;12.47;;
42226;SDS011;27892;52.378;13.122;2023-02-15T02:09:57;21.20;;;11.60;;
42226;SDS011;27892;52.378;13.122;2023-02-15T02:12:23;24.23;;;12.40;;
42226;SDS011;27892;52.378;13.122;2023-02-15T02:14:50;21.00;;;11.10;;
42226;SDS011;27892;52.378;13.122;2023-02-15T02:20:28;22.20;;;12.10;;
42226;SDS011;27892;52.378;13.122;2023-02-15T02:23:10;20.83;;;11.17;;
42226;SDS011;27892;52.378;13.122;2023-02-15T02:34:14;16.33;;;9.30;;
42226;SDS011;27892;52.378;13.122;2023-02-15T02:36:56;18.53;;;10.80;;
42226;SDS011;27892;52.378;13.122;2023-02-15T02:39:43;19.20;;;10.20;;
42226;SDS011;27892;52.378;13.122;2023-02-15T02:45:09;14.27;;;8.27;;
42226;SDS011;27892;52.378;13.122;2023-02-15T02:50:14;15.73;;;8.00;;
42226;SDS011;27892;52.378;13.122;2023-02-15T02:52:43;17.43;;;10.23;;
42226;SDS011;27892;52.378;13.122;2023-02-15T03:00:20;14.33;;;8.40;;
42226;SDS011;27892;52.378;13.122;2023-02-15T03:02:48;14.33;;;8.33;;
42226;SDS011;27892;52.378;13.122;2023-02-15T03:05:21;14.43;;;8.03;;
42226;SDS011;27892;52.378;13.122;2023-02-15T03:07:51;14.63;;;8.87;;
42226;SDS011;27892;52.378;13.122;2023-02-15T03:10:20;15.93;;;8.67;;
42226;SDS011;27892;52.378;13.122;2023-02-15T03:12:48;14.93;;;9.10;;
42226;SDS011;27892;52.378;13.122;2023-02-15T03:15:24;17.30;;;9.23;;
42226;SDS011;27892;52.378;13.122;2023-02-15T03:18:14;13.27;;;8.63;;
42226;SDS011;27892;52.378;13.122;2023-02-15T03:20:43;16.07;;;8.63;;
42226;SDS011;27892;52.378;13.122;2023-02-15T03:23:11;14.10;;;8.60;;
42226;SDS011;27892;52.378;13.122;2023-02-15T03:25:46;19.77;;;10.03;;
42226;SDS011;27892;52.378;13.122;2023-02-15T03:28:18;16.37;;;10.10;;
42226;SDS011;27892;52.378;13.122;2023-02-15T03:30:48;16.33;;;9.17;;
42226;SDS011;27892;52.378;13.122;2023-02-15T03:33:18;14.53;;;8.20;;
42226;SDS011;27892;52.378;13.122;2023-02-15T03:35:54;11.53;;;6.67;;
42226;SDS011;27892;52.378;13.122;2023-02-15T03:38:38;12.20;;;6.57;;
42226;SDS011;27892;52.378;13.122;2023-02-15T03:41:10;11.60;;;6.90;;
42226;SDS011;27892;52.378;13.122;2023-02-15T03:43:48;10.97;;;6.47;;
42226;SDS011;27892;52.378;13.122;2023-02-15T03:49:00;12.40;;;7.80;;
42226;SDS011;27892;52.378;13.122;2023-02-15T03:51:31;13.60;;;7.97;;
42226;SDS011;27892;52.378;13.122;2023-02-15T04:00:26;8.93;;;5.60;;
42226;SDS011;27892;52.378;13.122;2023-02-15T04:03:33;7.87;;;5.23;;
42226;SDS011;27892;52.378;13.122;2023-02-15T04:06:05;8.13;;;5.50;;
42226;SDS011;27892;52.378;13.122;2023-02-15T04:08:31;11.83;;;7.13;;
42226;SDS011;27892;52.378;13.122;2023-02-15T04:11:16;10.13;;;6.07;;
42226;SDS011;27892;52.378;13.122;2023-02-15T04:13:42;9.23;;;6.30;;
42226;SDS011;27892;52.378;13.122;2023-02-15T04:16:08;12.10;;;8.00;;
42226;SDS011;27892;52.378;13.122;2023-02-15T04:18:38;12.53;;;8.17;;
42226;SDS011;27892;52.378;13.122;2023-02-15T04:21:25;12.10;;;7.80;;
42226;SDS011;27892;52.378;13.122;2023-02-15T04:24:10;12.57;;;8.03;;
42226;SDS011;27892;52.378;13.122;2023-02-15T04:26:55;11.47;;;7.10;;
42226;SDS011;27892;52.378;13.122;2023-02-15T04:29:22;11.73;;;7.27;;
42226;SDS011;27892;52.378;13.122;2023-02-15T04:31:49;13.10;;;8.90;;
42226;SDS011;27892;52.378;13.122;2023-02-15T04:34:16;14.20;;;8.73;;
42226;SDS011;27892;52.378;13.122;2023-02-15T04:36:42;14.83;;;8.90;;
42226;SDS011;27892;52.378;13.122;2023-02-15T04:39:08;13.50;;;9.20;;
42226;SDS011;27892;52.378;13.122;2023-02-15T04:41:37;13.23;;;8.83;;
42226;SDS011;27892;52.378;13.122;2023-02-15T04:44:02;12.97;;;7.97;;
42226;SDS011;27892;52.378;13.122;2023-02-15T04:46:28;13.73;;;7.93;;
42226;SDS011;27892;52.378;13.122;2023-02-15T04:48:54;12.10;;;7.73;;
42226;SDS011;27892;52.378;13.122;2023-02-15T04:51:21;10.77;;;6.67;;
42226;SDS011;27892;52.378;13.122;2023-02-15T04:53:47;10.73;;;6.90;;
42226;SDS011;27892;52.378;13.122;2023-02-15T04:56:13;12.30;;;7.20;;
42226;SDS011;27892;52.378;13.122;2023-02-15T04:58:39;14.80;;;8.27;;
42226;SDS011;27892;52.378;13.122;2023-02-15T05:01:08;11.67;;;7.50;;
42226;SDS011;27892;52.378;13.122;2023-02-15T05:03:35;17.50;;;9.53;;
42226;SDS011;27892;52.378;13.122;2023-02-15T05:06:01;45.90;;;19.83;;
42226;SDS011;27892;52.378;13.122;2023-02-15T05:08:27;46.43;;;19.60;;
42226;SDS011;27892;52.378;13.122;2023-02-15T05:10:53;34.37;;;17.40;;
42226;SDS011;27892;52.378;13.122;2023-02-15T05:13:19;31.53;;;15.53;;
42226;SDS011;27892;52.378;13.122;2023-02-15T05:15:48;53.00;;;21.83;;
42226;SDS011;27892;52.378;13.122;2023-02-15T05:18:17;49.43;;;23.43;;
42226;SDS011;27892;52.378;13.122;2023-02-15T05:20:44;34.53;;;17.30;;
42226;SDS011;27892;52.378;13.122;2023-02-15T05:23:10;42.23;;;20.50;;
42226;SDS011;27892;52.378;13.122;2023-02-15T05:25:36;35.20;;;16.53;;
42226;SDS011;27892;52.378;13.122;2023-02-15T05:28:20;44.07;;;19.30;;
42226;SDS011;27892;52.378;13.122;2023-02-15T05:30:47;40.97;;;19.00;;
42226;SDS011;27892;52.378;13.122;2023-02-15T05:33:15;33.07;;;15.73;;
42226;SDS011;27892;52.378;13.122;2023-02-15T05:35:41;32.57;;;15.60;;
42226;SDS011;27892;52.378;13.122;2023-02-15T05:38:07;33.23;;;16.47;;
42226;SDS011;27892;52.378;13.122;2023-02-15T05:40:33;30.90;;;15.43;;
42226;SDS011;27892;52.378;13.122;2023-02-15T05:42:59;42.63;;;19.67;;
42226;SDS011;27892;52.378;13.122;2023-02-15T05:45:25;40.43;;;19.23;;
42226;SDS011;27892;52.378;13.122;2023-02-15T05:47:51;33.47;;;16.97;;
42226;SDS011;27892;52.378;13.122;2023-02-15T05:50:17;30.93;;;15.13;;
42226;SDS011;27892;52.378;13.122;2023-02-15T05:52:42;31.50;;;15.63;;
42226;SDS011;27892;52.378;13.122;2023-02-15T05:55:08;29.63;;;14.77;;
42226;SDS011;27892;52.378;13.122;2023-02-15T05:57:34;37.80;;;17.50;;
42226;SDS011;27892;52.378;13.122;2023-02-15T06:00:02;41.20;;;19.50;;
42226;SDS011;27892;52.378;13.122;2023-02-15T06:02:29;38.33;;;18.93;;
42226;SDS011;27892;52.378;13.122;2023-02-15T06:04:58;37.17;;;18.27;;
42226;SDS011;27892;52.378;13.122;2023-02-15T06:07:24;41.90;;;19.80;;
42226;SDS011;27892;52.378;13.122;2023-02-15T06:09:50;41.17;;;19.57;;
42226;SDS011;27892;52.378;13.122;2023-02-15T06:12:15;41.10;;;19.53;;
42226;SDS011;27892;52.378;13.122;2023-02-15T06:14:41;33.53;;;16.57;;
42226;SDS011;27892;52.378;13.122;2023-02-15T06:17:07;32.20;;;15.67;;
42226;SDS011;27892;52.378;13.122;2023-02-15T06:19:32;29.40;;;14.50;;
42226;SDS011;27892;52.378;13.122;2023-02-15T06:21:58;24.47;;;12.43;;
42226;SDS011;27892;52.378;13.122;2023-02-15T06:24:24;23.57;;;11.90;;
42226;SDS011;27892;52.378;13.122;2023-02-15T06:26:50;29.83;;;13.50;;
42226;SDS011;27892;52.378;13.122;2023-02-15T06:29:15;45.60;;;19.83;;
42226;SDS011;27892;52.378;13.122;2023-02-15T06:31:41;39.57;;;18.60;;
42226;SDS011;27892;52.378;13.122;2023-02-15T06:34:07;33.40;;;16.60;;
42226;SDS011;27892;52.378;13.122;2023-02-15T06:36:33;45.67;;;20.20;;
42226;SDS011;27892;52.378;13.122;2023-02-15T06:38:59;38.13;;;18.10;;
42226;SDS011;27892;52.378;13.122;2023-02-15T06:41:24;42.87;;;19.93;;
42226;SDS011;27892;52.378;13.122;2023-02-15T06:43:50;45.43;;;20.57;;
42226;SDS011;27892;52.378;13.122;2023-02-15T06:46:16;45.70;;;21.03;;
42226;SDS011;27892;52.378;13.122;2023-02-15T06:48:42;42.03;;;19.53;;
42226;SDS011;27892;52.378;13.122;2023-02-15T06:51:07;39.40;;;19.70;;
42226;SDS011;27892;52.378;13.122;2023-02-15T06:53:33;38.00;;;17.57;;
42226;SDS011;27892;52.378;13.122;2023-02-15T06:56:05;31.73;;;15.10;;
42226;SDS011;27892;52.378;13.122;2023-02-15T06:58:34;48.60;;;21.37;;
42226;SDS011;27892;52.378;13.122;2023-02-15T07:01:00;51.80;;;21.17;;
42226;SDS011;27892;52.378;13.122;2023-02-15T07:03:26;41.00;;;19.27;;
42226;SDS011;27892;52.378;13.122;2023-02-15T07:05:55;35.90;;;18.23;;
42226;SDS011;27892;52.378;13.122;2023-02-15T07:08:22;38.40;;;19.53;;
42226;SDS011;27892;52.378;13.122;2023-02-15T07:10:51;40.83;;;19.53;;
42226;SDS011;27892;52.378;13.122;2023-02-15T07:13:18;50.40;;;21.23;;
42226;SDS011;27892;52.378;13.122;2023-02-15T07:15:45;45.17;;;20.77;;
42226;SDS011;27892;52.378;13.122;2023-02-15T07:18:13;37.50;;;18.73;;
42226;SDS011;27892;52.378;13.122;2023-02-15T07:20:39;38.57;;;18.13;;
42226;SDS011;27892;52.378;13.122;2023-02-15T07:23:06;34.00;;;16.70;;
42226;SDS011;27892;52.378;13.122;2023-02-15T07:25:33;41.13;;;18.97;;
42226;SDS011;27892;52.378;13.122;2023-02-15T07:28:03;34.03;;;17.10;;
42226;SDS011;27892;52.378;13.122;2023-02-15T07:30:29;49.80;;;24.07;;
42226;SDS011;27892;52.378;13.122;2023-02-15T07:32:56;69.43;;;32.70;;
42226;SDS011;27892;52.378;13.122;2023-02-15T07:35:47;48.73;;;21.80;;
42226;SDS011;27892;52.378;13.122;2023-02-15T07:38:17;41.20;;;19.67;;
42226;SDS011;27892;52.378;13.122;2023-02-15T07:40:44;39.67;;;18.30;;
42226;SDS011;27892;52.378;13.122;2023-02-15T07:43:10;43.20;;;19.67;;
42226;SDS011;27892;52.378;13.122;2023-02-15T07:45:36;32.40;;;15.17;;
42226;SDS011;27892;52.378;13.122;2023-02-15T07:48:02;41.97;;;19.37;;
42226;SDS011;27892;52.378;13.122;2023-02-15T07:50:29;42.13;;;19.83;;
42226;SDS011;27892;52.378;13.122;2023-02-15T07:52:55;44.27;;;20.17;;
42226;SDS011;27892;52.378;13.122;2023-02-15T07:55:21;39.80;;;18.47;;
42226;SDS011;27892;52.378;13.122;2023-02-15T07:57:48;37.37;;;17.37;;
42226;SDS011;27892;52.378;13.122;2023-02-15T08:00:18;46.67;;;21.97;;
42226;SDS011;27892;52.378;13.122;2023-02-15T08:02:48;46.90;;;22.27;;
42226;SDS011;27892;52.378;13.122;2023-02-15T08:05:37;41.30;;;19.80;;
42226;SDS011;27892;52.378;13.122;2023-02-15T08:08:03;42.10;;;20.00;;
42226;SDS011;27892;52.378;13.122;2023-02-15T08:10:30;39.90;;;18.57;;
42226;SDS011;27892;52.378;13.122;2023-02-15T08:13:14;34.17;;;17.23;;
42226;SDS011;27892;52.378;13.122;2023-02-15T08:15:40;38.33;;;18.93;;
42226;SDS011;27892;52.378;13.122;2023-02-15T08:18:13;41.83;;;19.60;;
42226;SDS011;27892;52.378;13.122;2023-02-15T08:20:39;37.00;;;17.90;;
42226;SDS011;27892;52.378;13.122;2023-02-15T08:23:05;40.10;;;19.90;;
42226;SDS011;27892;52.378;13.122;2023-02-15T08:25:32;45.70;;;20.87;;
42226;SDS011;27892;52.378;13.122;2023-02-15T08:27:57;41.00;;;20.00;;
42226;SDS011;27892;52.378;13.122;2023-02-15T08:30:23;44.00;;;21.20;;
42226;SDS011;27892;52.378;13.122;2023-02-15T08:32:48;37.77;;;18.93;;
42226;SDS011;27892;52.378;13.122;2023-02-15T08:35:14;32.83;;;16.37;;
42226;SDS011;27892;52.378;13.122;2023-02-15T08:37:40;39.43;;;19.30;;
42226;SDS011;27892;52.378;13.122;2023-02-15T08:40:06;49.60;;;23.67;;
42226;SDS011;27892;52.378;13.122;2023-02-15T08:42:32;34.87;;;18.17;;
42226;SDS011;27892;52.378;13.122;2023-02-15T08:44:58;42.20;;;19.93;;
42226;SDS011;27892;52.378;13.122;2023-02-15T08:47:24;42.23;;;19.53;;
42226;SDS011;27892;52.378;13.122;2023-02-15T08:49:50;42.60;;;20.80;;
42226;SDS011;27892;52.378;13.122;2023-02-15T08:52:16;35.97;;;18.53;;
42226;SDS011;27892;52.378;13.122;2023-02-15T08:54:42;43.50;;;20.87;;
42226;SDS011;27892;52.378;13.122;2023-02-15T08:57:08;34.33;;;16.90;;
42226;SDS011;27892;52.378;13.122;2023-02-15T08:59:35;29.93;;;15.27;;
42226;SDS011;27892;52.378;13.122;2023-02-15T09:02:01;35.97;;;17.47;;
42226;SDS011;27892;52.378;13.122;2023-02-15T09:04:28;37.47;;;18.40;;
42226;SDS011;27892;52.378;13.122;2023-02-15T09:06:53;36.97;;;18.23;;
42226;SDS011;27892;52.378;13.122;2023-02-15T09:09:20;28.73;;;14.50;;
42226;SDS011;27892;52.378;13.122;2023-02-15T09:11:48;31.83;;;16.80;;
42226;SDS011;27892;52.378;13.122;2023-02-15T09:14:16;36.53;;;18.13;;
42226;SDS011;27892;52.378;13.122;2023-02-15T09:16:45;29.30;;;15.00;;
42226;SDS011;27892;52.378;13.122;2023-02-15T09:19:14;29.53;;;15.20;;
42226;SDS011;27892;52.378;13.122;2023-02-15T09:21:42;31.03;;;16.00;;
42226;SDS011;27892;52.378;13.122;2023-02-15T09:24:08;33.83;;;17.17;;
42226;SDS011;27892;52.378;13.122;2023-02-15T09:26:36;74.97;;;36.57;;
42226;SDS011;27892;52.378;13.122;2023-02-15T09:29:05;51.80;;;25.10;;
42226;SDS011;27892;52.378;13.122;2023-02-15T09:31:32;34.97;;;19.47;;
42226;SDS011;27892;52.378;13.122;2023-02-15T09:34:01;36.07;;;17.97;;
42226;SDS011;27892;52.378;13.122;2023-02-15T09:36:34;40.93;;;20.30;;
42226;SDS011;27892;52.378;13.122;2023-02-15T09:39:15;40.93;;;20.13;;
42226;SDS011;27892;52.378;13.122;2023-02-15T09:42:04;40.93;;;20.17;;
42226;SDS011;27892;52.378;13.122;2023-02-15T09:44:43;49.57;;;23.47;;
42226;SDS011;27892;52.378;13.122;2023-02-15T09:58:05;40.70;;;20.63;;
42226;SDS011;27892;52.378;13.122;2023-02-15T10:00:56;34.03;;;17.83;;
42226;SDS011;27892;52.378;13.122;2023-02-15T10:06:05;34.33;;;17.87;;
42226;SDS011;27892;52.378;13.122;2023-02-15T10:09:00;32.63;;;16.87;;
42226;SDS011;27892;52.378;13.122;2023-02-15T10:15:14;41.83;;;22.43;;
42226;SDS011;27892;52.378;13.122;2023-02-15T10:26:21;36.10;;;18.53;;
42226;SDS011;27892;52.378;13.122;2023-02-15T10:28:49;47.57;;;23.17;;
42226;SDS011;27892;52.378;13.122;2023-02-15T10:31:23;43.50;;;21.53;;
42226;SDS011;27892;52.378;13.122;2023-02-15T10:33:52;39.20;;;20.23;;
42226;SDS011;27892;52.378;13.122;2023-02-15T10:42:08;30.87;;;17.50;;
42226;SDS011;27892;52.378;13.122;2023-02-15T10:47:33;41.77;;;23.03;;
42226;SDS011;27892;52.378;13.122;2023-02-15T10:55:55;34.60;;;19.10;;
42226;SDS011;27892;52.378;13.122;2023-02-15T11:00:59;30.47;;;17.97;;
42226;SDS011;27892;52.378;13.122;2023-02-15T11:06:32;36.33;;;20.70;;
42226;SDS011;27892;52.378;13.122;2023-02-15T11:09:02;34.13;;;20.37;;
42226;SDS011;27892;52.378;13.122;2023-02-15T11:11:34;31.53;;;19.47;;
42226;SDS011;27892;52.378;13.122;2023-02-15T11:14:23;36.40;;;22.30;;
42226;SDS011;27892;52.378;13.122;2023-02-15T11:16:57;30.73;;;18.87;;
42226;SDS011;27892;52.378;13.122;2023-02-15T11:19:33;35.17;;;22.10;;
42226;SDS011;27892;52.378;13.122;2023-02-15T11:22:04;30.23;;;19.30;;
42226;SDS011;27892;52.378;13.122;2023-02-15T11:24:31;26.97;;;17.57;;
42226;SDS011;27892;52.378;13.122;2023-02-15T11:27:18;29.67;;;18.73;;
42226;SDS011;27892;52.378;13.122;2023-02-15T11:30:05;26.77;;;17.57;;
42226;SDS011;27892;52.378;13.122;2023-02-15T11:32:39;22.47;;;15.00;;
42226;SDS011;27892;52.378;13.122;2023-02-15T11:35:18;23.87;;;16.17;;
42226;SDS011;27892;52.378;13.122;2023-02-15T11:37:50;26.97;;;18.50;;
42226;SDS011;27892;52.378;13.122;2023-02-15T11:40:25;26.53;;;16.57;;
42226;SDS011;27892;52.378;13.122;2023-02-15T11:43:10;27.60;;;18.27;;
42226;SDS011;27892;52.378;13.122;2023-02-15T11:45:41;25.53;;;15.87;;
42226;SDS011;27892;52.378;13.122;2023-02-15T11:48:28;19.25;;;13.70;;
42226;SDS011;27892;52.378;13.122;2023-02-15T11:51:16;23.65;;;15.68;;
42226;SDS011;27892;52.378;13.122;2023-02-15T11:54:02;22.25;;;16.02;;
42226;SDS011;27892;52.378;13.122;2023-02-15T11:56:47;23.45;;;15.88;;
42226;SDS011;27892;52.378;13.122;2023-02-15T11:59:16;20.65;;;15.15;;
42226;SDS011;27892;52.378;13.122;2023-02-15T12:01:49;16.75;;;11.35;;
42226;SDS011;27892;52.378;13.122;2023-02-15T12:04:26;19.92;;;14.15;;
42226;SDS011;27892;52.378;13.122;2023-02-15T12:07:24;25.05;;;16.77;;
42226;SDS011;27892;52.378;13.122;2023-02-15T12:12:30;19.48;;;14.75;;
42226;SDS011;27892;52.378;13.122;2023-02-15T12:14:58;20.73;;;15.15;;
42226;SDS011;27892;52.378;13.122;2023-02-15T12:17:27;17.45;;;12.32;;
42226;SDS011;27892;52.378;13.122;2023-02-15T12:20:20;14.45;;;10.43;;
42226;SDS011;27892;52.378;13.122;2023-02-15T12:22:52;16.65;;;11.52;;
42226;SDS011;27892;52.378;13.122;2023-02-15T12:25:37;16.50;;;11.90;;
42226;SDS011;27892;52.378;13.122;2023-02-15T12:28:15;21.73;;;15.30;;
42226;SDS011;27892;52.378;13.122;2023-02-15T12:31:01;20.55;;;15.50;;
42226;SDS011;27892;52.378;13.122;2023-02-15T12:33:35;20.85;;;15.20;;
42226;SDS011;27892;52.378;13.122;2023-02-15T12:36:26;18.77;;;13.10;;
42226;SDS011;27892;52.378;13.122;2023-02-15T12:39:04;15.95;;;11.90;;
42226;SDS011;27892;52.378;13.122;2023-02-15T12:44:20;13.20;;;9.73;;
42226;SDS011;27892;52.378;13.122;2023-02-15T12:47:09;15.20;;;10.02;;
42226;SDS011;27892;52.378;13.122;2023-02-15T12:49:43;11.40;;;8.30;;
42226;SDS011;27892;52.378;13.122;2023-02-15T12:54:48;13.23;;;8.60;;
42226;SDS011;27892;52.378;13.122;2023-02-15T13:02:27;9.13;;;7.30;;
42226;SDS011;27892;52.378;13.122;2023-02-15T13:05:13;13.23;;;9.00;;
42226;SDS011;27892;52.378;13.122;2023-02-15T13:07:49;14.50;;;10.90;;
42226;SDS011;27892;52.378;13.122;2023-02-15T13:10:20;13.73;;;10.23;;
42226;SDS011;27892;52.378;13.122;2023-02-15T13:12:50;10.63;;;7.53;;
42226;SDS011;27892;52.378;13.122;2023-02-15T13:15:26;9.50;;;7.27;;
42226;SDS011;27892;52.378;13.122;2023-02-15T13:17:56;12.63;;;9.20;;
42226;SDS011;27892;52.378;13.122;2023-02-15T13:20:23;11.80;;;8.00;;
42226;SDS011;27892;52.378;13.122;2023-02-15T13:22:53;7.70;;;6.30;;
42226;SDS011;27892;52.378;13.122;2023-02-15T13:25:28;9.30;;;6.53;;
42226;SDS011;27892;52.378;13.122;2023-02-15T13:28:00;10.40;;;7.73;;
42226;SDS011;27892;52.378;13.122;2023-02-15T13:30:30;8.97;;;6.47;;
42226;SDS011;27892;52.378;13.122;2023-02-15T13:33:04;13.97;;;9.70;;
42226;SDS011;27892;52.378;13.122;2023-02-15T13:35:40;10.20;;;7.23;;
42226;SDS011;27892;52.378;13.122;2023-02-15T13:40:46;7.23;;;5.90;;
42226;SDS011;27892;52.378;13.122;2023-02-15T13:43:30;11.37;;;8.80;;
42226;SDS011;27892;52.378;13.122;2023-02-15T13:46:32;10.77;;;8.43;;
42226;SDS011;27892;52.378;13.122;2023-02-15T13:52:01;7.90;;;5.70;;
42226;SDS011;27892;52.378;13.122;2023-02-15T14:00:22;6.30;;;5.30;;
42226;SDS011;27892;52.378;13.122;2023-02-15T14:08:22;5.85;;;5.30;;
42226;SDS011;27892;52.378;13.122;2023-02-15T14:16:10;5.47;;;4.40;;
42226;SDS011;27892;52.378;13.122;2023-02-15T14:21:31;6.25;;;5.25;;
42226;SDS011;27892;52.378;13.122;2023-02-15T14:31:57;6.73;;;5.27;;
42226;SDS011;27892;52.378;13.122;2023-02-15T14:56:42;7.17;;;6.00;;
42226;SDS011;27892;52.378;13.122;2023-02-15T14:59:13;7.70;;;6.03;;
42226;SDS011;27892;52.378;13.122;2023-02-15T15:01:41;6.77;;;5.40;;
42226;SDS011;27892;52.378;13.122;2023-02-15T15:04:22;6.00;;;5.03;;
42226;SDS011;27892;52.378;13.122;2023-02-15T15:06:58;6.10;;;4.93;;
42226;SDS011;27892;52.378;13.122;2023-02-15T15:09:37;7.20;;;5.70;;
42226;SDS011;27892;52.378;13.122;2023-02-15T15:12:39;5.57;;;4.80;;
42226;SDS011;27892;52.378;13.122;2023-02-15T15:14:57;5.63;;;4.60;;
42226;SDS011;27892;52.378;13.122;2023-02-15T15:20:10;5.03;;;4.30;;
42226;SDS011;27892;52.378;13.122;2023-02-15T15:22:39;4.40;;;3.67;;
42226;SDS011;27892;52.378;13.122;2023-02-15T15:30:07;4.33;;;3.93;;
42226;SDS011;27892;52.378;13.122;2023-02-15T15:41:19;11.93;;;8.60;;
42226;SDS011;27892;52.378;13.122;2023-02-15T15:50:13;6.73;;;4.97;;
42226;SDS011;27892;52.378;13.122;2023-02-15T15:52:52;5.13;;;4.60;;
42226;SDS011;27892;52.378;13.122;2023-02-15T15:55:22;6.77;;;5.20;;
42226;SDS011;27892;52.378;13.122;2023-02-15T15:57:52;5.80;;;4.80;;
42226;SDS011;27892;52.378;13.122;2023-02-15T16:03:04;6.27;;;4.50;;
42226;SDS011;27892;52.378;13.122;2023-02-15T16:05:39;6.13;;;4.53;;
42226;SDS011;27892;52.378;13.122;2023-02-15T16:08:05;4.67;;;3.93;;
42226;SDS011;27892;52.378;13.122;2023-02-15T16:10:31;4.13;;;3.53;;
42226;SDS011;27892;52.378;13.122;2023-02-15T16:12:59;4.97;;;4.00;;
42226;SDS011;27892;52.378;13.122;2023-02-15T16:18:17;2.90;;;2.70;;
42226;SDS011;27892;52.378;13.122;2023-02-15T16:20:50;3.43;;;3.03;;
42226;SDS011;27892;52.378;13.122;2023-02-15T16:28:58;2.77;;;2.53;;
42226;SDS011;27892;52.378;13.122;2023-02-15T16:31:23;3.77;;;3.20;;
42226;SDS011;27892;52.378;13.122;2023-02-15T16:33:51;5.43;;;4.00;;
42226;SDS011;27892;52.378;13.122;2023-02-15T16:36:20;5.27;;;3.43;;
42226;SDS011;27892;52.378;13.122;2023-02-15T16:43:38;3.47;;;2.70;;
42226;SDS011;27892;52.378;13.122;2023-02-15T16:46:10;3.10;;;2.70;;
42226;SDS011;27892;52.378;13.122;2023-02-15T16:48:41;3.10;;;2.80;;
42226;SDS011;27892;52.378;13.122;2023-02-15T16:51:10;3.43;;;2.97;;
42226;SDS011;27892;52.378;13.122;2023-02-15T16:53:46;3.87;;;3.43;;
42226;SDS011;27892;52.378;13.122;2023-02-15T16:56:13;5.20;;;4.30;;
42226;SDS011;27892;52.378;13.122;2023-02-15T17:01:08;6.90;;;5.17;;
42226;SDS011;27892;52.378;13.122;2023-02-15T17:03:37;6.10;;;4.67;;
42226;SDS011;27892;52.378;13.122;2023-02-15T17:06:04;5.53;;;4.53;;
42226;SDS011;27892;52.378;13.122;2023-02-15T17:09:04;5.33;;;4.33;;
42226;SDS011;27892;52.378;13.122;2023-02-15T17:11:40;5.33;;;4.20;;
42226;SDS011;27892;52.378;13.122;2023-02-15T17:16:43;4.20;;;3.57;;
42226;SDS011;27892;52.378;13.122;2023-02-15T17:19:27;5.33;;;4.00;;
42226;SDS011;27892;52.378;13.122;2023-02-15T17:22:04;4.80;;;3.67;;
42226;SDS011;27892;52.378;13.122;2023-02-15T17:24:39;4.00;;;3.57;;
42226;SDS011;27892;52.378;13.122;2023-02-15T17:27:27;5.57;;;4.30;;
42226;SDS011;27892;52.378;13.122;2023-02-15T17:29:57;4.30;;;3.57;;
42226;SDS011;27892;52.378;13.122;2023-02-15T17:32:26;4.17;;;3.40;;
42226;SDS011;27892;52.378;13.122;2023-02-15T17:40:35;4.47;;;3.73;;
42226;SDS011;27892;52.378;13.122;2023-02-15T17:43:00;6.97;;;4.90;;
42226;SDS011;27892;52.378;13.122;2023-02-15T17:45:36;7.57;;;5.30;;
42226;SDS011;27892;52.378;13.122;2023-02-15T17:48:09;8.33;;;6.50;;
42226;SDS011;27892;52.378;13.122;2023-02-15T17:50:45;8.37;;;5.40;;
42226;SDS011;27892;52.378;13.122;2023-02-15T17:53:11;5.70;;;4.33;;
42226;SDS011;27892;52.378;13.122;2023-02-15T17:55:40;7.00;;;5.13;;
42226;SDS011;27892;52.378;13.122;2023-02-15T17:58:11;5.93;;;5.07;;